createdAt,value
2023-04-24T00:02:19.857Z,99.90
2023-04-24T00:04:47.876Z,99.90
2023-04-24T00:07:17.781Z,99.90
2023-04-24T00:09:45.737Z,99.90
2023-04-24T00:12:13.664Z,99.90
2023-04-24T00:14:41.611Z,99.90
2023-04-24T00:17:10.802Z,99.90
2023-04-24T00:19:38.541Z,99.90
2023-04-24T00:22:06.315Z,99.90
2023-04-24T00:24:34.016Z,99.90
2023-04-24T00:27:01.895Z,99.90
2023-04-24T00:29:30.177Z,99.90
2023-04-24T00:31:58.031Z,99.90
2023-04-24T00:34:27.294Z,99.90
2023-04-24T00:36:55.665Z,99.90
2023-04-24T00:39:23.826Z,99.90
2023-04-24T00:41:53.473Z,99.90
2023-04-24T00:44:21.372Z,99.90
2023-04-24T00:46:52.810Z,99.90
2023-04-24T00:49:20.872Z,99.90
2023-04-24T00:51:50.322Z,99.90
2023-04-24T00:54:18.948Z,99.90
2023-04-24T00:56:46.945Z,99.90
2023-04-24T00:59:15.210Z,99.90
2023-04-24T01:01:43.594Z,99.90
2023-04-24T01:04:13.171Z,99.90
2023-04-24T01:06:42.523Z,99.90
2023-04-24T01:09:13.810Z,99.90
2023-04-24T01:11:43.263Z,99.90
2023-04-24T01:14:11.432Z,99.90
2023-04-24T01:16:39.446Z,99.90
2023-04-24T01:19:08.266Z,99.90
2023-04-24T01:21:38.587Z,99.90
2023-04-24T01:24:08.721Z,99.90
2023-04-24T01:26:48.880Z,99.90
2023-04-24T01:29:16.823Z,99.90
2023-04-24T01:31:45.203Z,99.90
2023-04-24T01:34:13.074Z,99.90
2023-04-24T01:36:41.545Z,99.90
2023-04-24T01:39:10.670Z,99.90
2023-04-24T01:41:38.387Z,99.90
2023-04-24T01:44:06.382Z,99.90
2023-04-24T01:46:35.724Z,99.90
2023-04-24T01:49:04.027Z,99.90
2023-04-24T01:51:32.585Z,99.90
2023-04-24T01:54:00.389Z,99.90
2023-04-24T01:56:31.714Z,99.90
2023-04-24T01:58:59.950Z,99.90
2023-04-24T02:01:27.921Z,99.90
2023-04-24T02:03:55.805Z,99.90
2023-04-24T02:06:24.361Z,99.90
2023-04-24T02:08:52.055Z,99.90
2023-04-24T02:11:20.550Z,99.90
2023-04-24T02:13:49.717Z,99.90
2023-04-24T02:16:17.522Z,99.90
2023-04-24T02:18:45.680Z,99.90
2023-04-24T02:21:13.382Z,99.90
2023-04-24T02:23:41.209Z,99.90
2023-04-24T02:26:09.435Z,99.90
2023-04-24T02:28:37.164Z,99.90
2023-04-24T02:31:07.113Z,99.90
2023-04-24T02:33:34.913Z,99.90
2023-04-24T02:36:03.911Z,99.90
2023-04-24T02:38:31.658Z,99.90
2023-04-24T02:40:59.377Z,99.90
2023-04-24T02:43:27.079Z,99.90
2023-04-24T02:45:54.858Z,99.90
2023-04-24T02:48:24.549Z,99.90
2023-04-24T02:50:52.405Z,99.90
2023-04-24T02:53:20.208Z,99.90
2023-04-24T02:55:47.918Z,99.90
2023-04-24T02:58:16.608Z,99.90
2023-04-24T03:00:44.382Z,99.90
2023-04-24T03:03:12.252Z,99.90
2023-04-24T03:05:41.529Z,99.90
2023-04-24T03:08:09.258Z,99.90
2023-04-24T03:10:36.984Z,99.90
2023-04-24T03:13:04.686Z,99.90
2023-04-24T03:15:32.417Z,99.90
2023-04-24T03:18:01.451Z,99.90
2023-04-24T03:20:29.207Z,99.90
2023-04-24T03:22:58.296Z,99.90
2023-04-24T03:25:26.026Z,99.90
2023-04-24T03:27:55.636Z,99.90
2023-04-24T03:30:23.365Z,99.90
2023-04-24T03:32:51.106Z,99.90
2023-04-24T03:35:18.841Z,99.90
2023-04-24T03:37:46.521Z,99.90
2023-04-24T03:40:15.576Z,99.90
2023-04-24T03:42:43.356Z,99.90
2023-04-24T03:45:12.091Z,99.90
2023-04-24T03:47:40.118Z,99.90
2023-04-24T03:50:08.649Z,99.90
2023-04-24T03:52:36.559Z,99.90
2023-04-24T03:55:04.620Z,99.90
2023-04-24T03:57:33.777Z,99.90
2023-04-24T04:00:02.545Z,99.90
2023-04-24T04:02:30.280Z,99.90
2023-04-24T04:04:58.192Z,99.90
2023-04-24T04:07:26.474Z,99.90
2023-04-24T04:09:54.168Z,99.90
2023-04-24T04:12:21.879Z,99.90
2023-04-24T04:14:51.264Z,99.90
2023-04-24T04:17:18.994Z,99.90
2023-04-24T04:19:46.725Z,99.90
2023-04-24T04:22:14.521Z,99.90
2023-04-24T04:24:42.278Z,99.90
2023-04-24T04:27:10.103Z,99.90
2023-04-24T04:29:37.967Z,99.90
2023-04-24T04:32:07.219Z,99.90
2023-04-24T04:34:35.098Z,99.90
2023-04-24T04:37:03.038Z,99.90
2023-04-24T04:39:31.548Z,99.90
2023-04-24T04:41:59.517Z,99.90
2023-04-24T04:44:30.152Z,99.90
2023-04-24T04:47:00.029Z,99.90
2023-04-24T04:49:29.758Z,99.90
2023-04-24T04:51:57.551Z,99.90
2023-04-24T04:54:25.868Z,99.90
2023-04-24T04:56:53.786Z,99.90
2023-04-24T04:59:21.845Z,99.90
2023-04-24T05:01:49.554Z,99.90
2023-04-24T05:04:17.371Z,99.90
2023-04-24T05:06:48.088Z,99.90
2023-04-24T05:09:15.909Z,99.90
2023-04-24T05:11:43.609Z,99.90
2023-04-24T05:14:11.384Z,99.90
2023-04-24T05:16:39.223Z,99.90
2023-04-24T05:19:07.081Z,99.90
2023-04-24T05:21:34.886Z,99.90
2023-04-24T05:24:04.229Z,99.90
2023-04-24T05:26:31.976Z,99.90
2023-04-24T05:28:59.794Z,99.90
2023-04-24T05:31:27.604Z,99.90
2023-04-24T05:33:55.395Z,99.90
2023-04-24T05:36:23.187Z,99.90
2023-04-24T05:38:50.946Z,99.90
2023-04-24T05:41:20.062Z,99.90
2023-04-24T05:43:47.935Z,99.90
2023-04-24T05:46:15.780Z,99.90
2023-04-24T05:48:43.586Z,99.90
2023-04-24T05:51:12.085Z,99.90
2023-04-24T05:53:40.250Z,99.90
2023-04-24T05:56:08.168Z,99.90
2023-04-24T05:58:38.359Z,99.90
2023-04-24T06:01:06.216Z,99.90
2023-04-24T06:03:34.371Z,99.90
2023-04-24T06:06:02.421Z,99.90
2023-04-24T06:08:30.197Z,99.10
2023-04-24T06:10:58.897Z,98.10
2023-04-24T06:13:26.706Z,98.30
2023-04-24T06:15:55.934Z,98.20
2023-04-24T06:18:23.647Z,99.10
2023-04-24T06:20:51.566Z,99.20
2023-04-24T06:23:19.368Z,99.90
2023-04-24T06:25:47.089Z,99.90
2023-04-24T06:28:14.939Z,99.90
2023-04-24T06:30:42.722Z,99.30
2023-04-24T06:33:20.285Z,99.20
2023-04-24T06:35:49.554Z,99.80
2023-04-24T06:38:17.863Z,99.40
2023-04-24T06:40:45.842Z,98.70
2023-04-24T06:43:13.600Z,99.60
2023-04-24T06:45:41.471Z,99.90
2023-04-24T06:48:10.786Z,99.90
2023-04-24T06:50:38.559Z,99.90
2023-04-24T06:53:06.289Z,99.90
2023-04-24T06:55:34.218Z,99.90
2023-04-24T06:58:02.175Z,99.90
2023-04-24T07:00:30.952Z,99.90
2023-04-24T07:02:59.039Z,99.90
2023-04-24T07:05:29.098Z,99.90
2023-04-24T07:07:59.148Z,99.90
2023-04-24T07:10:29.539Z,99.90
2023-04-24T07:12:57.734Z,99.90
2023-04-24T07:15:25.438Z,99.90
2023-04-24T07:17:53.212Z,99.80
2023-04-24T07:20:20.994Z,98.00
2023-04-24T07:22:50.404Z,97.10
2023-04-24T07:25:18.286Z,96.20
2023-04-24T07:27:46.062Z,95.80
2023-04-24T07:30:14.319Z,95.40
2023-04-24T07:32:42.043Z,95.50
2023-04-24T07:35:10.961Z,94.80
2023-04-24T07:37:38.798Z,93.70
2023-04-24T07:40:09.310Z,93.60
2023-04-24T07:42:37.313Z,94.00
2023-04-24T07:45:05.856Z,93.80
2023-04-24T07:47:34.588Z,93.70
2023-04-24T07:50:02.702Z,93.40
2023-04-24T07:52:30.408Z,93.10
2023-04-24T07:55:01.340Z,93.10
2023-04-24T07:57:30.639Z,93.10
2023-04-24T07:59:58.579Z,92.90
2023-04-24T08:02:28.782Z,88.60
2023-04-24T08:05:00.246Z,73.20
2023-04-24T08:07:30.441Z,63.20
2023-04-24T08:10:00.895Z,60.20
2023-04-24T08:12:32.505Z,58.10
2023-04-24T08:15:02.232Z,56.20
2023-04-24T08:17:35.164Z,57.10
2023-04-24T08:20:06.393Z,61.60
2023-04-24T08:22:36.435Z,64.20
2023-04-24T08:25:06.464Z,67.30
2023-04-24T08:27:38.640Z,69.00
2023-04-24T08:30:10.849Z,70.90
2023-04-24T08:32:40.939Z,72.50
2023-04-24T08:35:11.812Z,74.30
2023-04-24T08:37:41.895Z,73.70
2023-04-24T08:40:17.063Z,74.20
2023-04-24T08:42:50.640Z,74.00
2023-04-24T08:45:20.515Z,73.80
2023-04-24T08:47:50.936Z,72.60
2023-04-24T08:50:19.617Z,68.80
2023-04-24T08:52:50.250Z,68.40
2023-04-24T08:55:21.792Z,70.70
2023-04-24T08:57:54.602Z,73.10
2023-04-24T09:00:23.307Z,74.60
2023-04-24T09:02:52.539Z,76.60
2023-04-24T09:05:22.697Z,74.80
2023-04-24T09:07:55.889Z,76.10
2023-04-24T09:10:25.147Z,77.30
2023-04-24T09:12:54.864Z,78.40
2023-04-24T09:15:22.746Z,79.10
2023-04-24T09:17:50.494Z,79.00
2023-04-24T09:20:18.483Z,77.10
2023-04-24T09:22:47.408Z,78.00
2023-04-24T09:25:15.135Z,77.70
2023-04-24T09:27:47.207Z,77.90
2023-04-24T09:30:23.574Z,79.20
2023-04-24T09:32:51.331Z,79.10
2023-04-24T09:35:19.125Z,78.60
2023-04-24T09:37:49.740Z,79.00
2023-04-24T09:40:19.006Z,79.20
2023-04-24T09:42:47.892Z,79.40
2023-04-24T09:45:18.809Z,78.10
2023-04-24T09:47:46.650Z,78.20
2023-04-24T09:50:16.242Z,76.40
2023-04-24T09:52:46.432Z,75.70
2023-04-24T09:55:22.485Z,75.00
2023-04-24T09:57:53.511Z,74.60
2023-04-24T10:00:24.279Z,73.80
2023-04-24T10:02:53.983Z,74.50
2023-04-24T10:05:25.771Z,75.20
2023-04-24T10:07:53.842Z,75.00
2023-04-24T10:10:21.882Z,75.30
2023-04-24T10:12:49.962Z,75.70
2023-04-24T10:15:21.543Z,76.30
2023-04-24T10:17:53.326Z,76.00
2023-04-24T10:20:22.959Z,74.60
2023-04-24T10:22:52.576Z,75.80
2023-04-24T10:25:22.417Z,76.70
2023-04-24T10:27:52.215Z,76.80
2023-04-24T10:30:22.107Z,75.40
2023-04-24T10:32:51.366Z,75.60
2023-04-24T10:35:23.062Z,77.30
2023-04-24T10:37:54.048Z,77.30
2023-04-24T10:40:28.374Z,80.10
2023-04-24T10:42:58.623Z,80.80
2023-04-24T10:45:27.173Z,79.50
2023-04-24T10:48:00.054Z,77.10
2023-04-24T10:50:29.317Z,77.60
2023-04-24T10:53:08.308Z,77.10
2023-04-24T10:55:44.664Z,77.90
2023-04-24T10:58:13.011Z,76.50
2023-04-24T11:00:42.262Z,75.60
2023-04-24T11:03:26.463Z,74.80
2023-04-24T11:05:58.157Z,74.10
2023-04-24T11:08:31.512Z,74.10
2023-04-24T11:11:04.484Z,72.30
2023-04-24T11:14:03.477Z,70.30
2023-04-24T11:16:34.151Z,69.90
2023-04-24T11:19:08.159Z,70.40
2023-04-24T11:21:43.764Z,70.10
2023-04-24T11:24:32.642Z,68.00
2023-04-24T11:27:07.610Z,67.00
2023-04-24T11:29:49.209Z,66.60
2023-04-24T11:32:19.709Z,66.60
2023-04-24T11:34:53.177Z,66.40
2023-04-24T11:37:20.952Z,67.30
2023-04-24T11:39:48.795Z,68.60
2023-04-24T11:42:17.353Z,69.00
2023-04-24T11:44:45.989Z,65.90
2023-04-24T11:47:13.739Z,66.40
2023-04-24T11:49:41.657Z,64.80
2023-04-24T11:52:11.540Z,65.00
2023-04-24T11:54:39.291Z,64.80
2023-04-24T11:57:08.170Z,66.30
2023-04-24T11:59:39.621Z,65.20
2023-04-24T12:02:07.594Z,66.60
2023-04-24T12:04:43.014Z,67.60
2023-04-24T12:07:12.706Z,65.80
2023-04-24T12:09:44.271Z,64.40
2023-04-24T12:12:13.466Z,64.90
2023-04-24T12:14:55.493Z,65.70
2023-04-24T12:17:29.192Z,66.90
2023-04-24T12:20:01.249Z,66.70
2023-04-24T12:22:30.406Z,66.30
2023-04-24T12:24:59.325Z,67.70
2023-04-24T12:27:27.534Z,68.30
2023-04-24T12:29:58.602Z,68.80
2023-04-24T12:32:28.221Z,67.60
2023-04-24T12:34:57.143Z,65.90
2023-04-24T12:37:26.110Z,64.70
2023-04-24T12:40:07.871Z,64.00
2023-04-24T12:42:37.140Z,64.10
2023-04-24T12:45:06.845Z,64.70
2023-04-24T12:47:35.466Z,65.60
2023-04-24T12:50:03.982Z,63.30
2023-04-24T12:52:32.472Z,61.80
2023-04-24T12:55:01.642Z,62.30
2023-04-24T12:57:32.339Z,60.00
2023-04-24T13:00:00.870Z,60.00
2023-04-24T13:02:31.386Z,60.70
2023-04-24T13:05:00.090Z,59.70
2023-04-24T13:07:28.387Z,58.60
2023-04-24T13:09:57.340Z,58.30
2023-04-24T13:12:26.318Z,59.30
2023-04-24T13:14:55.561Z,57.40
2023-04-24T13:17:23.953Z,57.80
2023-04-24T13:19:53.169Z,58.30
2023-04-24T13:22:20.857Z,59.50
2023-04-24T13:24:49.483Z,59.20
2023-04-24T13:27:17.567Z,59.20
2023-04-24T13:29:45.590Z,59.90
2023-04-24T13:32:14.787Z,60.00
2023-04-24T13:34:42.626Z,59.60
2023-04-24T13:37:10.366Z,59.10
2023-04-24T13:39:38.146Z,58.90
2023-04-24T13:42:05.924Z,59.20
2023-04-24T13:44:33.677Z,58.50
2023-04-24T13:47:01.496Z,58.30
2023-04-24T13:49:30.577Z,58.00
2023-04-24T13:51:58.847Z,57.50
2023-04-24T13:54:27.127Z,57.80
2023-04-24T13:56:55.140Z,57.90
2023-04-24T13:59:23.129Z,59.70
2023-04-24T14:01:50.993Z,58.60
2023-04-24T14:04:19.002Z,59.00
2023-04-24T14:06:48.341Z,59.80
2023-04-24T14:09:16.282Z,60.60
2023-04-24T14:11:44.152Z,60.30
2023-04-24T14:14:12.433Z,61.50
2023-04-24T14:16:40.553Z,61.40
2023-04-24T14:19:08.522Z,62.50
2023-04-24T14:21:36.262Z,62.10
2023-04-24T14:24:05.689Z,63.60
2023-04-24T14:26:33.661Z,64.50
2023-04-24T14:29:11.638Z,66.30
2023-04-24T14:31:42.464Z,68.40
2023-04-24T14:34:10.562Z,70.20
2023-04-24T14:36:38.596Z,73.60
2023-04-24T14:39:08.617Z,74.90
2023-04-24T14:41:38.056Z,82.50
2023-04-24T14:44:06.182Z,88.10
2023-04-24T14:46:34.200Z,92.40
2023-04-24T14:49:02.117Z,96.10
2023-04-24T14:51:29.997Z,95.50
2023-04-24T14:53:58.441Z,96.60
2023-04-24T14:56:27.527Z,97.30
2023-04-24T14:58:55.363Z,96.50
2023-04-24T15:01:23.355Z,96.40
2023-04-24T15:03:51.710Z,95.40
2023-04-24T15:06:21.067Z,97.10
2023-04-24T15:08:50.429Z,96.20
2023-04-24T15:11:18.535Z,94.60
2023-04-24T15:13:47.929Z,93.70
2023-04-24T15:16:16.418Z,93.10
2023-04-24T15:18:44.282Z,91.80
2023-04-24T15:21:13.859Z,92.90
2023-04-24T15:23:41.740Z,91.70
2023-04-24T15:26:09.521Z,92.80
2023-04-24T15:28:37.317Z,91.90
2023-04-24T15:31:06.519Z,92.60
2023-04-24T15:33:34.287Z,90.90
2023-04-24T15:36:02.066Z,91.20
2023-04-24T15:38:29.873Z,89.30
2023-04-24T15:40:57.604Z,87.70
2023-04-24T15:43:25.609Z,87.30
2023-04-24T15:45:53.416Z,86.80
2023-04-24T15:48:22.585Z,87.00
2023-04-24T15:50:50.584Z,86.30
2023-04-24T15:53:21.990Z,87.40
2023-04-24T15:55:50.050Z,88.20
2023-04-24T15:58:18.103Z,89.20
2023-04-24T16:00:45.991Z,88.60
2023-04-24T16:03:13.819Z,88.20
2023-04-24T16:05:42.962Z,87.30
2023-04-24T16:08:11.146Z,85.50
2023-04-24T16:10:38.890Z,83.40
2023-04-24T16:13:06.662Z,82.30
2023-04-24T16:15:35.981Z,83.10
2023-04-24T16:18:03.826Z,83.10
2023-04-24T16:20:31.596Z,83.10
2023-04-24T16:23:00.653Z,82.70
2023-04-24T16:25:28.533Z,84.00
2023-04-24T16:27:57.210Z,83.50
2023-04-24T16:30:25.195Z,84.10
2023-04-24T16:32:53.567Z,83.10
2023-04-24T16:35:21.469Z,81.80
2023-04-24T16:37:49.216Z,82.00
2023-04-24T16:40:18.399Z,82.00
2023-04-24T16:42:46.179Z,80.40
2023-04-24T16:45:13.877Z,80.20
2023-04-24T16:47:41.685Z,79.40
2023-04-24T16:50:10.172Z,80.00
2023-04-24T16:52:37.914Z,80.90
2023-04-24T16:55:06.448Z,80.90
2023-04-24T16:57:35.544Z,82.00
2023-04-24T17:00:03.936Z,81.50
2023-04-24T17:02:32.091Z,80.60
2023-04-24T17:05:00.006Z,80.40
2023-04-24T17:07:27.902Z,80.70
2023-04-24T17:09:55.777Z,81.60
2023-04-24T17:12:23.504Z,81.40
2023-04-24T17:14:52.576Z,82.10
2023-04-24T17:17:23.045Z,81.90
2023-04-24T17:19:51.210Z,82.40
2023-04-24T17:22:19.153Z,82.60
2023-04-24T17:24:46.866Z,83.60
2023-04-24T17:27:15.637Z,84.20
2023-04-24T17:29:44.453Z,84.70
2023-04-24T17:32:13.605Z,85.50
2023-04-24T17:34:41.392Z,86.50
2023-04-24T17:37:09.372Z,87.10
2023-04-24T17:39:37.196Z,87.70
2023-04-24T17:42:05.235Z,87.40
2023-04-24T17:44:32.964Z,84.40
2023-04-24T17:47:00.868Z,84.70
2023-04-24T17:49:29.999Z,83.90
2023-04-24T17:51:57.832Z,84.80
2023-04-24T17:54:25.612Z,85.10
2023-04-24T17:56:53.710Z,85.20
2023-04-24T17:59:22.157Z,86.10
2023-04-24T18:01:50.336Z,86.60
2023-04-24T18:04:18.412Z,87.70
2023-04-24T18:06:47.713Z,89.20
2023-04-24T18:09:18.755Z,89.50
2023-04-24T18:11:46.565Z,88.40
2023-04-24T18:14:14.705Z,89.30
2023-04-24T18:16:42.563Z,89.40
2023-04-24T18:19:10.329Z,89.70
2023-04-24T18:21:39.111Z,89.70
2023-04-24T18:24:08.341Z,89.50
2023-04-24T18:26:36.045Z,89.80
2023-04-24T18:29:03.800Z,90.00
2023-04-24T18:31:32.439Z,89.40
2023-04-24T18:34:00.421Z,90.00
2023-04-24T18:36:28.213Z,90.00
2023-04-24T18:38:55.955Z,90.30
2023-04-24T18:41:25.029Z,90.80
2023-04-24T18:43:52.817Z,90.80
2023-04-24T18:46:20.666Z,91.20
2023-04-24T18:48:48.644Z,91.20
2023-04-24T18:51:16.543Z,91.00
2023-04-24T18:53:44.265Z,91.10
2023-04-24T18:56:12.982Z,90.90
2023-04-24T18:58:46.105Z,90.60
2023-04-24T19:01:14.066Z,90.60
2023-04-24T19:03:41.861Z,90.60
2023-04-24T19:06:09.682Z,90.40
2023-04-24T19:08:38.442Z,90.40
2023-04-24T19:11:06.589Z,90.30
2023-04-24T19:13:34.685Z,90.20
2023-04-24T19:16:03.880Z,90.30
2023-04-24T19:18:31.756Z,90.60
2023-04-24T19:20:59.889Z,90.40
2023-04-24T19:23:28.548Z,90.60
2023-04-24T19:25:56.294Z,90.40
2023-04-24T19:28:24.085Z,90.60
2023-04-24T19:30:51.790Z,90.40
2023-04-24T19:33:20.940Z,90.80
2023-04-24T19:35:49.106Z,91.10
2023-04-24T19:38:16.954Z,91.50
2023-04-24T19:40:44.711Z,92.00
2023-04-24T19:43:12.521Z,92.40
2023-04-24T19:45:40.359Z,92.90
2023-04-24T19:48:08.434Z,93.50
2023-04-24T19:50:38.104Z,94.20
2023-04-24T19:53:06.399Z,93.70
2023-04-24T19:55:34.092Z,94.30
2023-04-24T19:58:01.889Z,94.70
2023-04-24T20:00:29.661Z,94.70
2023-04-24T20:02:58.364Z,94.90
2023-04-24T20:05:26.429Z,95.50
2023-04-24T20:07:55.645Z,95.10
2023-04-24T20:10:23.373Z,95.30
2023-04-24T20:12:51.255Z,95.70
2023-04-24T20:15:19.165Z,95.80
2023-04-24T20:17:46.941Z,96.40
2023-04-24T20:20:14.954Z,96.90
2023-04-24T20:22:42.750Z,97.00
2023-04-24T20:25:13.743Z,97.20
2023-04-24T20:27:42.763Z,97.80
2023-04-24T20:30:13.056Z,97.80
2023-04-24T20:32:41.314Z,97.70
2023-04-24T20:35:10.322Z,97.40
2023-04-24T20:37:38.273Z,96.80
2023-04-24T20:40:07.214Z,96.90
2023-04-24T20:42:36.764Z,97.10
2023-04-24T20:45:04.978Z,97.10
2023-04-24T20:47:32.858Z,97.20
2023-04-24T20:50:02.189Z,97.60
2023-04-24T20:52:29.958Z,97.60
2023-04-24T20:54:57.725Z,98.00
2023-04-24T20:57:25.532Z,98.70
2023-04-24T20:59:55.569Z,99.20
2023-04-24T21:02:23.538Z,99.90
2023-04-24T21:04:51.312Z,99.90
2023-04-24T21:07:19.123Z,99.90
2023-04-24T21:09:46.854Z,99.90
2023-04-24T21:12:14.648Z,99.90
2023-04-24T21:14:42.425Z,99.90
2023-04-24T21:17:11.503Z,99.90
2023-04-24T21:19:39.514Z,99.90
2023-04-24T21:22:07.229Z,99.90
2023-04-24T21:24:35.162Z,99.90
2023-04-24T21:27:03.279Z,99.90
2023-04-24T21:29:31.042Z,99.90
2023-04-24T21:31:58.859Z,99.90
2023-04-24T21:34:27.990Z,99.90
2023-04-24T21:36:55.946Z,99.90
2023-04-24T21:39:23.694Z,99.90
2023-04-24T21:41:51.490Z,99.90
2023-04-24T21:44:19.264Z,99.90
2023-04-24T21:46:47.059Z,99.90
2023-04-24T21:49:14.788Z,99.90
2023-04-24T21:51:43.878Z,99.90
2023-04-24T21:54:11.656Z,99.90
2023-04-24T21:56:41.321Z,99.90
2023-04-24T21:59:09.538Z,99.90
2023-04-24T22:01:37.442Z,99.90
2023-04-24T22:04:06.536Z,99.90
2023-04-24T22:06:34.833Z,99.90
2023-04-24T22:09:04.686Z,99.90
2023-04-24T22:11:32.989Z,99.90
2023-04-24T22:14:00.778Z,99.90
2023-04-24T22:16:30.917Z,99.90
2023-04-24T22:18:59.200Z,99.90
2023-04-24T22:21:27.432Z,99.90
2023-04-24T22:23:55.347Z,99.90
2023-04-24T22:26:24.491Z,99.90
2023-04-24T22:28:52.243Z,99.90
2023-04-24T22:31:20.098Z,99.90
2023-04-24T22:33:48.060Z,99.90
2023-04-24T22:36:16.502Z,99.90
2023-04-24T22:38:44.216Z,99.90
2023-04-24T22:41:12.035Z,99.90
2023-04-24T22:43:41.180Z,99.90
2023-04-24T22:46:08.895Z,99.90
2023-04-24T22:48:36.784Z,99.90
2023-04-24T22:51:04.787Z,99.90
2023-04-24T22:53:32.529Z,99.90
2023-04-24T22:56:00.836Z,99.90
2023-04-24T22:58:29.196Z,99.90
2023-04-24T23:00:58.300Z,99.90
2023-04-24T23:03:26.317Z,99.90
2023-04-24T23:05:54.203Z,99.90
2023-04-24T23:08:22.081Z,99.90
2023-04-24T23:10:49.809Z,99.90
2023-04-24T23:13:17.560Z,99.90
2023-04-24T23:15:45.403Z,99.90
2023-04-24T23:18:14.494Z,99.90
2023-04-24T23:20:42.205Z,99.90
2023-04-24T23:23:10.060Z,99.90
2023-04-24T23:25:37.807Z,99.90
2023-04-24T23:28:05.943Z,99.90
2023-04-24T23:30:33.726Z,99.90
2023-04-24T23:33:02.248Z,99.90
2023-04-24T23:35:31.776Z,99.90
2023-04-24T23:37:59.529Z,99.90
2023-04-24T23:40:27.593Z,99.90
2023-04-24T23:43:06.081Z,99.90
2023-04-24T23:45:35.438Z,99.90
2023-04-24T23:48:03.971Z,99.90
2023-04-24T23:50:33.162Z,99.90
2023-04-24T23:53:00.902Z,99.90
2023-04-24T23:55:28.684Z,99.90
2023-04-24T23:57:56.414Z,99.90
